This is the latest recevied weather packets stored in our database for station/object DG5TS-10. If no packets are shown the sender has not sent any weather packets the latest 10 day(s).
| Time | Temp. | Humidity | Pressure | Rain* | Wind** | Luminosity | Snow |
|---|---|---|---|---|---|---|---|
| 1777925439 | 21.11° C | 33% | 1014.3 hPa | - | - | - | - |
| 1777924539 | 21.67° C | 33% | 1014.2 hPa | - | - | - | - |
| 1777923639 | 22.22° C | 31% | 1014.1 hPa | - | - | - | - |
| 1777922739 | 22.22° C | 30% | 1013.7 hPa | - | - | - | - |
| 1777921839 | 22.78° C | 30% | 1013.7 hPa | - | - | - | - |
| 1777920939 | 23.33° C | 29% | 1013.8 hPa | - | - | - | - |
| 1777920039 | 24.44° C | 27% | 1013.8 hPa | - | - | - | - |
| 1777919139 | 24.44° C | 26% | 1013.2 hPa | - | - | - | - |
| 1777918238 | 25° C | 25% | 1012.7 hPa | - | - | - | - |
| 1777917338 | 25.56° C | 24% | 1012.5 hPa | - | - | - | - |
| 1777916438 | 26.11° C | 24% | 1012.3 hPa | - | - | - | - |
| 1777915538 | 26.11° C | 23% | 1012.2 hPa | - | - | - | - |
| 1777914638 | 26.11° C | 24% | 1012.2 hPa | - | - | - | - |
| 1777913738 | 26.67° C | 22% | 1012.1 hPa | - | - | - | - |
| 1777912838 | 27.78° C | 21% | 1012.2 hPa | - | - | - | - |
| 1777911937 | 28.33° C | 20% | 1012.3 hPa | - | - | - | - |
| 1777911037 | 28.89° C | 20% | 1012.2 hPa | - | - | - | - |
| 1777910137 | 28.89° C | 20% | 1012.2 hPa | - | - | - | - |
| 1777909237 | 30° C | 19% | 1012.2 hPa | - | - | - | - |
| 1777908337 | 29.44° C | 19% | 1012.3 hPa | - | - | - | - |
| 1777907437 | 31.11° C | 17% | 1012.3 hPa | - | - | - | - |
| 1777906537 | 34.44° C | 14% | 1012.4 hPa | - | - | - | - |
| 1777905637 | 35.56° C | 14% | 1012.6 hPa | - | - | - | - |
| 1777904737 | 33.89° C | 15% | 1012.8 hPa | - | - | - | - |
| 1777903836 | 27.78° C | 21% | 1012.8 hPa | - | - | - | - |
* Rain since midnight (hover to see other rain measurements)
** Current wind speed in m/s (hover to see current wind gust speed)